createdAt,value
2019-05-20T00:00:03.597Z,99.90
2019-05-20T00:02:41.153Z,99.90
2019-05-20T00:05:18.868Z,99.90
2019-05-20T00:07:56.306Z,99.90
2019-05-20T00:10:33.825Z,99.90
2019-05-20T00:13:11.319Z,99.70
2019-05-20T00:15:48.853Z,99.90
2019-05-20T00:18:26.381Z,99.90
2019-05-20T00:21:03.890Z,99.90
2019-05-20T00:23:41.403Z,99.90
2019-05-20T00:26:18.895Z,99.90
2019-05-20T00:28:56.400Z,99.90
2019-05-20T00:31:33.926Z,99.90
2019-05-20T00:34:11.482Z,99.90
2019-05-20T00:36:49.001Z,99.90
2019-05-20T00:39:26.525Z,99.90
2019-05-20T00:42:04.042Z,99.90
2019-05-20T00:44:41.910Z,99.90
2019-05-20T00:47:19.415Z,99.90
2019-05-20T00:49:56.951Z,99.90
2019-05-20T00:52:34.466Z,99.90
2019-05-20T00:55:17.523Z,99.90
2019-05-20T00:57:55.055Z,99.90
2019-05-20T01:00:32.565Z,99.90
2019-05-20T01:03:10.315Z,99.90
2019-05-20T01:05:47.882Z,99.90
2019-05-20T01:08:25.400Z,99.90
2019-05-20T01:11:02.947Z,99.90
2019-05-20T01:13:40.479Z,99.90
2019-05-20T01:16:18.031Z,99.90
2019-05-20T01:18:55.513Z,99.90
2019-05-20T01:21:33.085Z,99.90
2019-05-20T01:24:10.651Z,99.90
2019-05-20T01:26:48.158Z,99.90
2019-05-20T01:29:25.683Z,99.90
2019-05-20T01:32:03.240Z,99.90
2019-05-20T01:34:40.777Z,99.90
2019-05-20T01:37:18.293Z,99.90
2019-05-20T01:39:55.899Z,99.90
2019-05-20T01:42:33.423Z,99.90
2019-05-20T01:45:10.964Z,99.90
2019-05-20T01:47:48.472Z,99.90
2019-05-20T01:50:26.027Z,99.90
2019-05-20T01:53:03.524Z,99.90
2019-05-20T01:55:41.089Z,99.90
2019-05-20T01:58:18.654Z,99.90
2019-05-20T02:00:56.190Z,99.90
2019-05-20T02:03:33.742Z,99.90
2019-05-20T02:06:11.279Z,99.90
2019-05-20T02:08:48.766Z,99.90
2019-05-20T02:11:26.307Z,99.90
2019-05-20T02:14:06.356Z,99.90
2019-05-20T02:16:43.877Z,99.90
2019-05-20T02:19:21.399Z,99.90
2019-05-20T02:21:58.983Z,99.90
2019-05-20T02:24:36.498Z,99.90
2019-05-20T02:27:14.124Z,99.90
2019-05-20T02:29:51.655Z,99.90
2019-05-20T02:32:29.177Z,99.90
2019-05-20T02:35:06.731Z,99.90
2019-05-20T02:37:44.258Z,99.90
2019-05-20T02:40:21.749Z,99.90
2019-05-20T02:42:59.273Z,99.90
2019-05-20T02:45:36.806Z,99.90
2019-05-20T02:48:14.365Z,99.90
2019-05-20T02:50:51.919Z,99.90
2019-05-20T02:53:29.417Z,99.90
2019-05-20T02:56:06.988Z,99.90
2019-05-20T02:58:44.513Z,99.90
2019-05-20T03:01:22.272Z,99.90
2019-05-20T03:04:10.691Z,99.90
2019-05-20T03:06:37.068Z,99.90
2019-05-20T03:09:14.580Z,99.90
2019-05-20T03:11:52.093Z,99.90
2019-05-20T03:14:29.644Z,99.90
2019-05-20T03:17:07.179Z,99.90
2019-05-20T03:19:44.689Z,99.90
2019-05-20T03:22:22.217Z,99.90
2019-05-20T03:24:59.712Z,99.90
2019-05-20T03:27:37.230Z,99.90
2019-05-20T03:30:14.816Z,99.90
2019-05-20T03:32:52.331Z,99.90
2019-05-20T03:35:29.875Z,99.90
2019-05-20T03:38:07.382Z,99.90
2019-05-20T03:40:44.900Z,99.90
2019-05-20T03:43:22.442Z,99.90
2019-05-20T03:45:59.949Z,99.90
2019-05-20T03:48:37.497Z,99.90
2019-05-20T03:51:15.272Z,99.90
2019-05-20T03:53:52.855Z,99.90
2019-05-20T03:56:30.390Z,99.90
2019-05-20T03:59:07.938Z,99.90
2019-05-20T04:01:45.487Z,99.90
2019-05-20T04:04:25.140Z,99.90
2019-05-20T04:07:00.609Z,99.90
2019-05-20T04:09:38.184Z,99.90
2019-05-20T04:12:15.731Z,99.90
2019-05-20T04:14:53.238Z,99.90
2019-05-20T04:17:30.746Z,99.90
2019-05-20T04:20:08.586Z,99.90
2019-05-20T04:22:46.108Z,99.90
2019-05-20T04:25:23.621Z,99.90
2019-05-20T04:28:01.161Z,99.90
2019-05-20T04:30:38.650Z,99.90
2019-05-20T04:33:16.197Z,99.90
2019-05-20T04:35:53.757Z,99.90
2019-05-20T04:38:31.313Z,99.90
2019-05-20T04:41:08.801Z,99.90
2019-05-20T04:43:46.343Z,99.90
2019-05-20T04:46:23.940Z,99.90
2019-05-20T04:49:01.548Z,99.90
2019-05-20T04:51:41.797Z,99.90
2019-05-20T04:54:19.328Z,99.90
2019-05-20T04:56:56.831Z,99.90
2019-05-20T04:59:34.341Z,99.90
2019-05-20T05:02:11.911Z,99.90
2019-05-20T05:04:49.449Z,99.90
2019-05-20T05:07:26.969Z,99.90
2019-05-20T05:10:04.456Z,99.90
2019-05-20T05:12:41.998Z,99.90
2019-05-20T05:15:19.502Z,99.90
2019-05-20T05:17:57.074Z,99.70
2019-05-20T05:20:34.666Z,98.70
2019-05-20T05:23:12.183Z,98.00
2019-05-20T05:25:49.674Z,97.80
2019-05-20T05:28:27.258Z,96.90
2019-05-20T05:31:04.803Z,96.60
2019-05-20T05:33:42.339Z,96.60
2019-05-20T05:36:19.842Z,96.70
2019-05-20T05:38:57.360Z,96.20
2019-05-20T05:41:34.885Z,95.40
2019-05-20T05:44:12.416Z,95.00
2019-05-20T05:46:49.923Z,94.90
2019-05-20T05:49:27.470Z,94.20
2019-05-20T05:52:05.062Z,93.90
2019-05-20T05:54:42.610Z,93.60
2019-05-20T05:57:20.127Z,93.40
2019-05-20T05:59:57.676Z,92.70
2019-05-20T06:02:35.206Z,92.00
2019-05-20T06:05:12.710Z,91.40
2019-05-20T06:07:50.206Z,90.80
2019-05-20T06:10:27.788Z,90.40
2019-05-20T06:13:05.394Z,90.70
2019-05-20T06:15:42.896Z,90.00
2019-05-20T06:18:20.422Z,90.00
2019-05-20T06:20:57.986Z,90.40
2019-05-20T06:23:35.509Z,90.10
2019-05-20T06:26:13.031Z,88.70
2019-05-20T06:28:50.573Z,90.20
2019-05-20T06:31:28.097Z,90.50
2019-05-20T06:34:05.688Z,91.00
2019-05-20T06:36:43.862Z,91.40
2019-05-20T06:39:21.417Z,91.60
2019-05-20T06:41:58.972Z,92.40
2019-05-20T06:44:51.822Z,93.10
2019-05-20T06:47:13.993Z,94.00
2019-05-20T06:49:51.530Z,94.00
2019-05-20T06:52:35.758Z,94.60
2019-05-20T06:55:07.352Z,95.30
2019-05-20T06:57:44.895Z,95.40
2019-05-20T07:00:34.767Z,94.90
2019-05-20T07:03:12.256Z,94.30
2019-05-20T07:05:49.775Z,93.90
2019-05-20T07:08:27.319Z,93.70
2019-05-20T07:11:04.875Z,93.00
2019-05-20T07:13:42.439Z,92.70
2019-05-20T07:16:19.946Z,92.10
2019-05-20T07:18:57.474Z,91.10
2019-05-20T07:21:35.017Z,90.50
2019-05-20T07:24:12.539Z,90.10
2019-05-20T07:26:50.047Z,89.10
2019-05-20T07:29:27.640Z,87.90
2019-05-20T07:32:05.155Z,86.70
2019-05-20T07:34:42.691Z,85.40
2019-05-20T07:37:20.192Z,84.90
2019-05-20T07:39:57.750Z,83.00
2019-05-20T07:42:35.253Z,83.50
2019-05-20T07:45:12.780Z,83.50
2019-05-20T07:47:50.313Z,84.20
2019-05-20T07:50:27.868Z,83.80
2019-05-20T07:53:05.368Z,84.10
2019-05-20T07:55:50.743Z,83.20
2019-05-20T07:58:28.400Z,82.20
2019-05-20T08:01:06.087Z,81.00
2019-05-20T08:03:43.588Z,76.70
2019-05-20T08:06:21.154Z,76.50
2019-05-20T08:08:58.658Z,77.10
2019-05-20T08:11:36.171Z,74.70
2019-05-20T08:14:13.666Z,75.30
2019-05-20T08:16:51.182Z,76.20
2019-05-20T08:19:28.762Z,74.40
2019-05-20T08:22:06.207Z,74.20
2019-05-20T08:24:43.740Z,75.10
2019-05-20T08:27:21.232Z,74.10
2019-05-20T08:29:58.797Z,74.60
2019-05-20T08:32:36.310Z,74.70
2019-05-20T08:35:13.834Z,73.70
2019-05-20T08:37:51.359Z,73.70
2019-05-20T08:40:28.894Z,74.70
2019-05-20T08:43:06.387Z,75.50
2019-05-20T08:45:43.911Z,74.80
2019-05-20T08:48:21.428Z,74.50
2019-05-20T08:50:58.959Z,75.30
2019-05-20T08:53:36.465Z,75.40
2019-05-20T08:56:13.994Z,75.80
2019-05-20T08:58:51.539Z,74.90
2019-05-20T09:01:29.070Z,74.10
2019-05-20T09:04:06.610Z,72.90
2019-05-20T09:06:44.161Z,73.70
2019-05-20T09:09:21.716Z,73.30
2019-05-20T09:11:59.213Z,73.00
2019-05-20T09:14:40.248Z,72.00
2019-05-20T09:17:14.237Z,72.40
2019-05-20T09:19:51.737Z,71.80
2019-05-20T09:22:29.298Z,70.90
2019-05-20T09:25:07.077Z,70.70
2019-05-20T09:27:44.405Z,70.90
2019-05-20T09:30:22.034Z,70.60
2019-05-20T09:32:59.530Z,69.30
2019-05-20T09:35:37.053Z,68.10
2019-05-20T09:38:20.274Z,68.40
2019-05-20T09:40:52.071Z,68.30
2019-05-20T09:43:29.588Z,67.10
2019-05-20T09:46:08.338Z,66.80
2019-05-20T09:48:44.661Z,66.70
2019-05-20T09:51:22.278Z,66.00
2019-05-20T09:53:59.835Z,65.10
2019-05-20T09:56:37.369Z,63.50
2019-05-20T09:59:16.428Z,62.30
2019-05-20T10:01:52.438Z,61.90
2019-05-20T10:04:29.979Z,61.60
2019-05-20T10:07:07.509Z,59.00
2019-05-20T10:09:45.011Z,57.90
2019-05-20T10:12:22.545Z,57.50
2019-05-20T10:15:00.054Z,56.30
2019-05-20T10:17:37.583Z,55.40
2019-05-20T10:20:15.149Z,56.10
2019-05-20T10:22:52.661Z,55.70
2019-05-20T10:25:30.169Z,55.30
2019-05-20T10:28:09.797Z,54.80
2019-05-20T10:30:47.300Z,53.00
2019-05-20T10:33:24.827Z,53.00
2019-05-20T10:36:02.333Z,52.80
2019-05-20T10:38:56.862Z,52.40
2019-05-20T10:41:17.437Z,52.30
2019-05-20T10:43:54.979Z,52.30
2019-05-20T10:46:32.515Z,52.80
2019-05-20T10:49:10.027Z,52.60
2019-05-20T10:51:47.573Z,52.90
2019-05-20T10:54:25.107Z,53.30
2019-05-20T10:57:02.602Z,52.90
2019-05-20T10:59:40.137Z,53.40
2019-05-20T11:02:17.658Z,53.70
2019-05-20T11:04:55.198Z,54.90
2019-05-20T11:07:32.742Z,54.10
2019-05-20T11:10:10.311Z,53.90
2019-05-20T11:12:47.853Z,53.40
2019-05-20T11:15:25.349Z,53.70
2019-05-20T11:18:02.894Z,53.50
2019-05-20T11:20:40.404Z,53.00
2019-05-20T11:23:17.951Z,51.70
2019-05-20T11:25:55.448Z,51.50
2019-05-20T11:28:32.985Z,50.60
2019-05-20T11:31:10.483Z,50.30
2019-05-20T11:33:48.022Z,50.10
2019-05-20T11:36:25.574Z,50.30
2019-05-20T11:39:06.983Z,50.50
2019-05-20T11:41:52.978Z,51.20
2019-05-20T11:44:18.574Z,52.40
2019-05-20T11:46:56.087Z,53.60
2019-05-20T11:49:33.651Z,54.90
2019-05-20T11:52:11.174Z,58.30
2019-05-20T11:54:48.717Z,58.70
2019-05-20T11:57:26.308Z,59.40
2019-05-20T12:00:03.799Z,59.80
2019-05-20T12:02:41.325Z,62.60
2019-05-20T12:05:18.855Z,63.20
2019-05-20T12:07:56.399Z,62.90
2019-05-20T12:10:33.893Z,64.00
2019-05-20T12:13:11.444Z,63.50
2019-05-20T12:15:48.959Z,65.80
2019-05-20T12:18:26.522Z,65.60
2019-05-20T12:21:04.062Z,64.00
2019-05-20T12:23:41.618Z,63.20
2019-05-20T12:26:22.452Z,62.10
2019-05-20T12:28:56.643Z,60.30
2019-05-20T12:31:34.174Z,60.10
2019-05-20T12:34:11.707Z,59.70
2019-05-20T12:36:49.260Z,60.10
2019-05-20T12:39:26.866Z,58.90
2019-05-20T12:42:04.372Z,58.00
2019-05-20T12:44:41.889Z,58.40
2019-05-20T12:47:19.411Z,58.50
2019-05-20T12:49:56.934Z,58.20
2019-05-20T12:52:34.543Z,58.00
2019-05-20T12:55:12.055Z,58.30
2019-05-20T12:57:49.544Z,58.70
2019-05-20T13:00:27.066Z,60.90
2019-05-20T13:03:04.583Z,63.40
2019-05-20T13:05:42.108Z,67.00
2019-05-20T13:08:19.609Z,70.90
2019-05-20T13:10:57.145Z,72.20
2019-05-20T13:13:34.664Z,73.70
2019-05-20T13:16:12.174Z,75.40
2019-05-20T13:18:56.084Z,77.10
2019-05-20T13:21:27.252Z,78.70
2019-05-20T13:24:04.762Z,80.70
2019-05-20T13:26:42.297Z,82.40
2019-05-20T13:29:19.813Z,84.00
2019-05-20T13:31:57.314Z,85.00
2019-05-20T13:34:34.824Z,86.20
2019-05-20T13:37:12.330Z,86.90
2019-05-20T13:39:49.854Z,84.10
2019-05-20T13:42:27.354Z,74.10
2019-05-20T13:45:04.889Z,65.10
2019-05-20T13:47:42.407Z,54.70
2019-05-20T13:50:19.920Z,45.10
2019-05-20T13:52:57.474Z,40.70
2019-05-20T13:55:35.022Z,38.20
2019-05-20T13:58:12.536Z,37.60
2019-05-20T14:00:50.060Z,39.70
2019-05-20T14:03:27.584Z,41.60
2019-05-20T14:06:05.144Z,43.90
2019-05-20T14:08:42.662Z,45.80
2019-05-20T14:11:33.754Z,47.60
2019-05-20T14:13:57.748Z,49.20
2019-05-20T14:16:35.262Z,50.00
2019-05-20T14:19:12.773Z,50.30
2019-05-20T14:21:50.301Z,51.50
2019-05-20T14:24:27.822Z,52.50
2019-05-20T14:27:05.361Z,54.50
2019-05-20T14:29:42.908Z,56.10
2019-05-20T14:32:20.435Z,56.80
2019-05-20T14:34:58.054Z,58.10
2019-05-20T14:37:35.479Z,58.30
2019-05-20T14:40:13.026Z,57.90
2019-05-20T14:42:50.545Z,56.80
2019-05-20T14:45:28.089Z,55.60
2019-05-20T14:48:05.825Z,53.70
2019-05-20T14:50:43.293Z,51.00
2019-05-20T14:53:20.833Z,46.90
2019-05-20T14:55:59.152Z,45.40
2019-05-20T14:58:36.669Z,44.90
2019-05-20T15:01:14.233Z,45.10
2019-05-20T15:03:51.726Z,44.60
2019-05-20T15:06:29.253Z,44.70
2019-05-20T15:09:07.424Z,44.50
2019-05-20T15:11:44.934Z,44.30
2019-05-20T15:14:22.495Z,44.10
2019-05-20T15:17:00.054Z,44.40
2019-05-20T15:19:37.537Z,45.10
2019-05-20T15:22:15.105Z,45.20
2019-05-20T15:24:53.062Z,45.90
2019-05-20T15:27:30.605Z,47.00
2019-05-20T15:30:08.725Z,47.40
2019-05-20T15:32:46.385Z,48.50
2019-05-20T15:35:23.984Z,49.40
2019-05-20T15:38:01.527Z,50.10
2019-05-20T15:40:39.076Z,50.90
2019-05-20T15:43:17.665Z,51.80
2019-05-20T15:45:55.174Z,52.90
2019-05-20T15:48:32.700Z,53.60
2019-05-20T15:51:10.255Z,54.30
2019-05-20T15:53:47.778Z,55.10
2019-05-20T15:56:25.314Z,55.80
2019-05-20T15:59:03.024Z,57.00
2019-05-20T16:01:40.626Z,57.40
2019-05-20T16:04:18.142Z,58.10
2019-05-20T16:06:59.751Z,58.90
2019-05-20T16:09:34.317Z,59.70
2019-05-20T16:12:11.906Z,61.40
2019-05-20T16:14:51.662Z,63.90
2019-05-20T16:17:29.358Z,65.30
2019-05-20T16:20:07.272Z,66.70
2019-05-20T16:22:44.250Z,67.20
2019-05-20T16:25:21.760Z,67.70
2019-05-20T16:27:59.274Z,68.60
2019-05-20T16:30:36.769Z,69.20
2019-05-20T16:33:14.345Z,70.20
2019-05-20T16:36:03.610Z,72.50
2019-05-20T16:38:42.262Z,72.60
2019-05-20T16:41:19.853Z,73.10
2019-05-20T16:43:57.361Z,73.90
2019-05-20T16:46:34.959Z,75.70
2019-05-20T16:49:12.574Z,79.60
2019-05-20T16:51:50.145Z,81.80
2019-05-20T16:54:27.712Z,81.00
2019-05-20T16:57:05.253Z,79.50
2019-05-20T16:59:42.782Z,78.30
2019-05-20T17:02:20.335Z,79.10
2019-05-20T17:04:57.874Z,79.00
2019-05-20T17:07:35.427Z,77.50
2019-05-20T17:10:12.964Z,76.10
2019-05-20T17:12:50.486Z,76.70
2019-05-20T17:15:27.995Z,77.10
2019-05-20T17:18:05.662Z,78.10
2019-05-20T17:20:45.990Z,78.30
2019-05-20T17:23:20.734Z,78.50
2019-05-20T17:25:58.242Z,77.50
2019-05-20T17:28:35.768Z,76.70
2019-05-20T17:31:18.239Z,77.00
2019-05-20T17:33:56.089Z,78.00
2019-05-20T17:36:36.602Z,79.60
2019-05-20T17:39:14.122Z,81.10
2019-05-20T17:41:51.757Z,84.10
2019-05-20T17:44:29.355Z,86.10
2019-05-20T17:47:06.934Z,87.90
2019-05-20T17:49:44.457Z,88.80
2019-05-20T17:52:22.077Z,90.00
2019-05-20T17:54:59.606Z,90.50
2019-05-20T17:57:37.190Z,90.90
2019-05-20T18:00:18.005Z,91.40
2019-05-20T18:02:55.589Z,91.20
2019-05-20T18:05:33.194Z,91.80
2019-05-20T18:08:10.760Z,93.60
2019-05-20T18:10:48.338Z,95.80
2019-05-20T18:13:25.954Z,96.50
2019-05-20T18:16:03.537Z,98.10
2019-05-20T18:18:41.214Z,99.10
2019-05-20T18:21:18.930Z,99.60
2019-05-20T18:23:56.657Z,99.80
2019-05-20T18:26:34.305Z,99.90
2019-05-20T18:29:11.913Z,99.90
2019-05-20T18:31:49.648Z,99.90
2019-05-20T18:34:27.175Z,99.90
2019-05-20T18:37:04.697Z,99.90
2019-05-20T18:39:42.267Z,99.90
2019-05-20T18:42:19.800Z,99.90
2019-05-20T18:44:57.378Z,99.90
2019-05-20T18:47:34.899Z,99.90
2019-05-20T18:50:13.409Z,99.90
2019-05-20T18:52:51.112Z,99.90
2019-05-20T18:55:28.730Z,99.90
2019-05-20T18:58:06.571Z,99.90
2019-05-20T19:00:44.141Z,99.90
2019-05-20T19:03:21.934Z,99.90
2019-05-20T19:05:59.294Z,99.90
2019-05-20T19:08:36.805Z,99.90
2019-05-20T19:11:14.375Z,99.90
2019-05-20T19:13:51.914Z,99.90
2019-05-20T19:16:29.530Z,99.90
2019-05-20T19:19:07.088Z,99.90
2019-05-20T19:21:44.747Z,99.90
2019-05-20T19:24:22.365Z,99.90
2019-05-20T19:27:00.191Z,99.90
2019-05-20T19:29:37.782Z,99.90
2019-05-20T19:32:15.490Z,99.90
2019-05-20T19:34:53.109Z,99.90
2019-05-20T19:37:30.836Z,99.90
2019-05-20T19:40:09.018Z,99.90
2019-05-20T19:42:46.036Z,99.90
2019-05-20T19:45:23.612Z,99.90
2019-05-20T19:48:01.130Z,99.90
2019-05-20T19:50:38.653Z,99.90
2019-05-20T19:53:16.222Z,99.90
2019-05-20T19:55:53.729Z,99.90
2019-05-20T19:58:31.259Z,99.90
2019-05-20T20:01:08.808Z,99.90
2019-05-20T20:03:46.429Z,99.90
2019-05-20T20:06:23.921Z,99.90
2019-05-20T20:09:01.429Z,99.90
2019-05-20T20:11:39.397Z,99.90
2019-05-20T20:14:16.945Z,99.90
2019-05-20T20:16:54.507Z,99.90
2019-05-20T20:19:32.073Z,99.90
2019-05-20T20:22:09.623Z,99.90
2019-05-20T20:24:47.129Z,99.90
2019-05-20T20:27:24.677Z,99.90
2019-05-20T20:30:02.181Z,99.90
2019-05-20T20:32:39.738Z,99.90
2019-05-20T20:35:17.296Z,99.90
2019-05-20T20:37:54.836Z,99.90
2019-05-20T20:40:32.361Z,99.90
2019-05-20T20:43:09.857Z,99.90
2019-05-20T20:45:47.399Z,99.90
2019-05-20T20:48:24.931Z,99.90
2019-05-20T20:51:02.588Z,99.90
2019-05-20T20:53:40.034Z,99.90
2019-05-20T20:56:25.295Z,99.90
2019-05-20T20:58:56.602Z,99.90
2019-05-20T21:01:34.171Z,99.90
2019-05-20T21:04:11.680Z,99.90
2019-05-20T21:06:49.228Z,99.90
2019-05-20T21:09:26.802Z,99.90
2019-05-20T21:12:04.284Z,99.90
2019-05-20T21:14:41.840Z,99.90
2019-05-20T21:17:19.493Z,99.90
2019-05-20T21:19:57.014Z,99.90
2019-05-20T21:22:34.719Z,99.90
2019-05-20T21:25:12.145Z,99.90
2019-05-20T21:27:49.673Z,99.90
2019-05-20T21:30:27.190Z,99.90
2019-05-20T21:33:09.277Z,99.90
2019-05-20T21:35:45.184Z,99.90
2019-05-20T21:38:19.764Z,99.90
2019-05-20T21:40:57.272Z,99.90
2019-05-20T21:43:34.805Z,99.90
2019-05-20T21:46:12.394Z,99.90
2019-05-20T21:48:49.921Z,99.90
2019-05-20T21:51:27.512Z,99.90
2019-05-20T21:54:05.050Z,99.90
2019-05-20T21:56:42.603Z,99.90
2019-05-20T21:59:20.101Z,99.90
2019-05-20T22:01:57.676Z,99.90
2019-05-20T22:04:35.285Z,99.90
2019-05-20T22:07:12.880Z,99.90
2019-05-20T22:09:50.424Z,99.90
2019-05-20T22:12:27.950Z,99.90
2019-05-20T22:15:05.558Z,99.90
2019-05-20T22:17:43.093Z,99.90
2019-05-20T22:20:20.583Z,99.90
2019-05-20T22:23:16.696Z,99.90
2019-05-20T22:25:54.183Z,99.90
2019-05-20T22:28:31.732Z,99.90
2019-05-20T22:31:09.274Z,99.90
2019-05-20T22:33:46.793Z,99.90
2019-05-20T22:36:24.402Z,99.90
2019-05-20T22:39:01.965Z,99.90
2019-05-20T22:41:39.437Z,99.90
2019-05-20T22:44:16.975Z,99.90
2019-05-20T22:46:54.483Z,99.90
2019-05-20T22:49:32.074Z,99.90
2019-05-20T22:52:09.568Z,99.90
2019-05-20T22:54:47.078Z,99.90
2019-05-20T22:57:24.659Z,99.90
2019-05-20T23:00:02.177Z,99.90
2019-05-20T23:02:39.727Z,99.90
2019-05-20T23:05:17.235Z,99.90
2019-05-20T23:07:54.841Z,99.90
2019-05-20T23:10:32.338Z,99.90
2019-05-20T23:13:09.869Z,99.90
2019-05-20T23:15:47.372Z,99.90
2019-05-20T23:18:24.997Z,99.90
2019-05-20T23:21:02.510Z,99.90
2019-05-20T23:23:40.037Z,99.90
2019-05-20T23:26:17.542Z,99.90
2019-05-20T23:28:55.079Z,99.90
2019-05-20T23:31:32.598Z,99.90
2019-05-20T23:34:13.197Z,99.90
2019-05-20T23:36:47.639Z,99.90
2019-05-20T23:39:25.182Z,99.90
2019-05-20T23:42:02.755Z,99.90
2019-05-20T23:44:40.284Z,99.90
2019-05-20T23:47:17.863Z,99.90
2019-05-20T23:49:55.342Z,99.90
2019-05-20T23:52:32.871Z,99.90
2019-05-20T23:55:10.615Z,99.90
2019-05-20T23:57:48.153Z,99.90
